Time;durP1;ratioP1;P1;durP2;ratioP2;P2;SDS_P1;SDS_P2;PMS_P1;PMS_P2;Temp;Humidity;BMP_temperature;BMP_pressure;BME280_temperature;BME280_humidity;BME280_pressure;Samples;Min_cycle;Max_cycle;Signal;HPM_P1;HPM_P2
2021/10/10 00:00:24;;;;;;;0.80;0.60;;;9.60;99.90;;;;;;5080942;28;20204;-81
2021/10/10 00:02:49;;;;;;;0.90;0.90;;;9.60;99.90;;;;;;5078804;28;20194;-82
2021/10/10 00:05:15;;;;;;;0.53;0.33;;;9.60;99.90;;;;;;5073026;28;20221;-81
2021/10/10 00:07:43;;;;;;;0.47;0.47;;;9.50;99.90;;;;;;5092651;28;20736;-81
2021/10/10 00:10:14;;;;;;;1.83;1.53;;;9.50;99.90;;;;;;5093199;28;20584;-81
2021/10/10 00:12:40;;;;;;;0.83;0.80;;;9.40;99.90;;;;;;5087804;28;20191;-81
2021/10/10 00:15:08;;;;;;;2.40;0.87;;;9.50;99.90;;;;;;5091509;28;20403;-81
2021/10/10 00:17:34;;;;;;;0.50;0.47;;;9.30;99.90;;;;;;5081792;28;20671;-81
2021/10/10 00:19:59;;;;;;;0.90;0.90;;;9.30;99.90;;;;;;5096059;28;20199;-81
2021/10/10 00:22:25;;;;;;;0.63;0.63;;;9.30;99.90;;;;;;5080163;28;20192;-80
2021/10/10 00:24:51;;;;;;;0.30;0.30;;;9.20;99.90;;;;;;5099208;28;20682;-80
2021/10/10 00:27:17;;;;;;;1.03;0.60;;;9.10;99.90;;;;;;5091018;28;20218;-81
2021/10/10 00:29:42;;;;;;;0.40;0.40;;;9.00;99.90;;;;;;5081224;28;20256;-81
2021/10/10 00:32:08;;;;;;;2.10;1.40;;;9.00;99.90;;;;;;5073623;28;20849;-81
2021/10/10 00:34:33;;;;;;;0.93;0.33;;;9.00;99.90;;;;;;5080914;28;20207;-81
2021/10/10 00:36:59;;;;;;;1.43;0.70;;;9.00;99.90;;;;;;5095220;28;20173;-81
2021/10/10 00:39:24;;;;;;;1.00;0.67;;;8.90;99.90;;;;;;5093496;28;20184;-81
2021/10/10 00:41:50;;;;;;;3.07;0.60;;;8.90;99.90;;;;;;5084001;28;20793;-81
2021/10/10 00:44:16;;;;;;;0.30;0.30;;;8.80;99.90;;;;;;5093711;28;20177;-81
2021/10/10 00:46:41;;;;;;;0.53;0.53;;;8.70;99.90;;;;;;5083536;28;20218;-80
2021/10/10 00:49:07;;;;;;;2.43;0.77;;;8.70;99.90;;;;;;5074194;28;20249;-81
2021/10/10 00:51:35;;;;;;;0.57;0.57;;;8.60;99.90;;;;;;5082436;28;20230;-82
2021/10/10 00:54:05;;;;;;;0.77;0.77;;;8.60;99.90;;;;;;5082970;28;20177;-81
2021/10/10 00:56:31;;;;;;;0.27;0.27;;;8.50;99.90;;;;;;5081896;28;20186;-81
2021/10/10 00:58:58;;;;;;;0.20;0.20;;;8.60;99.90;;;;;;5085557;28;20184;-80
2021/10/10 01:01:26;;;;;;;1.67;0.60;;;8.50;99.90;;;;;;5082119;28;20186;-81
2021/10/10 01:03:52;;;;;;;0.30;0.30;;;8.50;99.90;;;;;;5068609;28;20665;-81
2021/10/10 01:06:17;;;;;;;1.00;0.70;;;8.50;99.90;;;;;;5078241;28;20202;-81
2021/10/10 01:08:43;;;;;;;2.57;0.90;;;8.60;99.90;;;;;;5089303;28;20212;-81
2021/10/10 01:11:10;;;;;;;0.50;0.37;;;8.70;99.90;;;;;;5070239;28;20193;-81
2021/10/10 01:13:36;;;;;;;1.70;0.83;;;8.60;99.90;;;;;;5077568;28;20183;-81
2021/10/10 01:16:02;;;;;;;0.67;0.67;;;8.70;99.90;;;;;;5089480;28;20198;-81
2021/10/10 01:18:28;;;;;;;0.60;0.60;;;8.70;99.90;;;;;;5083582;28;20543;-81
2021/10/10 01:20:54;;;;;;;0.20;0.20;;;8.70;99.90;;;;;;5085333;28;20568;-81
2021/10/10 01:23:20;;;;;;;0.60;0.60;;;8.60;99.90;;;;;;5082990;28;20189;-81
2021/10/10 01:25:46;;;;;;;0.30;0.30;;;8.60;99.90;;;;;;5088337;28;20688;-81
2021/10/10 01:28:12;;;;;;;0.33;0.33;;;8.50;99.90;;;;;;5088533;28;20278;-81
2021/10/10 01:30:38;;;;;;;2.43;0.57;;;8.60;99.90;;;;;;5079038;28;20276;-81
2021/10/10 01:33:09;;;;;;;0.60;0.60;;;8.60;99.90;;;;;;5087000;28;20216;-81
2021/10/10 01:35:36;;;;;;;0.10;0.10;;;8.60;99.90;;;;;;5082286;28;20678;-80
2021/10/10 01:38:03;;;;;;;0.33;0.33;;;8.60;99.90;;;;;;5081815;28;20182;-81
2021/10/10 01:40:28;;;;;;;0.87;0.70;;;8.60;99.90;;;;;;5078843;28;20607;-81
2021/10/10 01:42:54;;;;;;;0.30;0.30;;;8.60;99.90;;;;;;5087447;28;20226;-81
2021/10/10 01:45:24;;;;;;;2.77;0.63;;;8.50;99.90;;;;;;5089699;28;20254;-80
2021/10/10 01:47:50;;;;;;;1.70;0.83;;;8.50;99.90;;;;;;5078869;28;20213;-81
2021/10/10 01:50:16;;;;;;;0.23;0.23;;;8.40;99.90;;;;;;5083137;28;20814;-81
2021/10/10 01:52:43;;;;;;;0.83;0.50;;;8.40;99.90;;;;;;5089215;28;20211;-80
2021/10/10 01:55:10;;;;;;;0.77;0.73;;;8.30;99.90;;;;;;5084100;28;20200;-80
2021/10/10 01:57:36;;;;;;;0.83;0.70;;;8.30;99.90;;;;;;5089739;28;20275;-81
2021/10/10 02:00:06;;;;;;;0.83;0.43;;;8.30;99.90;;;;;;5083031;28;20183;-81
2021/10/10 02:02:32;;;;;;;0.93;0.43;;;8.30;99.90;;;;;;5073849;28;20519;-81
2021/10/10 02:04:58;;;;;;;0.70;0.53;;;8.30;99.90;;;;;;5081814;28;20200;-81
2021/10/10 02:07:23;;;;;;;0.30;0.30;;;8.30;99.90;;;;;;5081974;28;20239;-82
2021/10/10 02:09:49;;;;;;;0.50;0.50;;;8.30;99.90;;;;;;5088081;28;20197;-81
2021/10/10 02:12:15;;;;;;;1.37;1.27;;;8.20;99.90;;;;;;5092671;28;20178;-80
2021/10/10 02:14:40;;;;;;;0.30;0.30;;;8.10;99.90;;;;;;5085207;28;20215;-81
2021/10/10 02:17:06;;;;;;;2.00;0.47;;;8.10;99.90;;;;;;5081420;28;20187;-81
2021/10/10 02:19:32;;;;;;;0.20;0.20;;;8.00;99.90;;;;;;5088144;28;20200;-80
2021/10/10 02:21:57;;;;;;;0.30;0.30;;;7.80;99.90;;;;;;5084299;28;20268;-81
2021/10/10 02:24:24;;;;;;;0.30;0.30;;;7.70;99.90;;;;;;5082091;28;20223;-81
2021/10/10 02:26:49;;;;;;;1.00;0.80;;;7.50;99.90;;;;;;5084327;28;20647;-80
2021/10/10 02:29:15;;;;;;;0.90;0.50;;;7.40;99.90;;;;;;5083883;28;20276;-81
2021/10/10 02:31:43;;;;;;;0.40;0.40;;;7.30;99.90;;;;;;5076372;28;20178;-81
2021/10/10 02:34:10;;;;;;;0.43;0.43;;;7.30;99.90;;;;;;5086065;28;20269;-81
2021/10/10 02:36:37;;;;;;;0.43;0.40;;;7.20;99.90;;;;;;5088737;28;20180;-81
2021/10/10 02:39:03;;;;;;;0.40;0.27;;;7.20;99.90;;;;;;5092285;28;20191;-80
2021/10/10 02:41:29;;;;;;;2.00;1.37;;;7.10;99.90;;;;;;5089892;28;20196;-81
2021/10/10 02:43:55;;;;;;;3.07;2.30;;;7.00;99.90;;;;;;5079792;28;20185;-80
2021/10/10 02:46:20;;;;;;;0.80;0.60;;;7.00;99.90;;;;;;5093606;28;20273;-81
2021/10/10 02:48:46;;;;;;;0.67;0.37;;;6.90;99.90;;;;;;5086394;28;20201;-80
2021/10/10 02:51:11;;;;;;;0.30;0.30;;;6.90;99.90;;;;;;5076132;28;20191;-80
2021/10/10 02:53:37;;;;;;;0.33;0.33;;;6.90;99.90;;;;;;5083121;28;20177;-80
2021/10/10 02:56:03;;;;;;;0.47;0.47;;;7.00;99.90;;;;;;5107151;28;20208;-81
2021/10/10 02:58:29;;;;;;;0.97;0.70;;;7.00;99.90;;;;;;5085707;28;20208;-81
2021/10/10 03:00:55;;;;;;;1.83;1.73;;;7.10;99.90;;;;;;5085830;28;20180;-80
2021/10/10 03:03:21;;;;;;;1.17;0.40;;;7.10;99.90;;;;;;5083345;28;20193;-81
2021/10/10 03:05:46;;;;;;;0.40;0.40;;;7.10;99.90;;;;;;5077245;28;20234;-81
2021/10/10 03:08:12;;;;;;;0.70;0.63;;;7.10;99.90;;;;;;5092278;28;20252;-80
2021/10/10 03:10:38;;;;;;;0.30;0.27;;;7.20;99.90;;;;;;5076256;28;20617;-80
2021/10/10 03:13:03;;;;;;;0.20;0.20;;;7.20;99.90;;;;;;5082726;28;20196;-81
2021/10/10 03:15:30;;;;;;;0.80;0.80;;;7.20;99.90;;;;;;5079022;28;20616;-81
2021/10/10 03:17:55;;;;;;;0.77;0.70;;;7.20;99.90;;;;;;5086900;28;20181;-81
2021/10/10 03:20:21;;;;;;;0.50;0.40;;;7.10;99.90;;;;;;5076420;28;20234;-80
2021/10/10 03:22:47;;;;;;;0.53;0.53;;;7.10;99.90;;;;;;5086943;28;20670;-80
2021/10/10 03:25:12;;;;;;;0.60;0.40;;;7.10;99.90;;;;;;5080230;28;20276;-80
2021/10/10 03:27:39;;;;;;;2.27;1.40;;;7.10;99.90;;;;;;5084543;28;20212;-81
2021/10/10 03:30:05;;;;;;;0.60;0.57;;;7.00;99.90;;;;;;5087302;28;20180;-81
2021/10/10 03:32:30;;;;;;;0.70;0.40;;;7.10;99.90;;;;;;5084974;28;20177;-81
2021/10/10 03:34:56;;;;;;;0.30;0.30;;;7.00;99.90;;;;;;5073739;28;20252;-80
2021/10/10 03:37:22;;;;;;;0.67;0.67;;;7.00;99.90;;;;;;5084174;28;20257;-80
2021/10/10 03:39:47;;;;;;;0.20;0.20;;;7.00;99.90;;;;;;5082254;28;20724;-81
2021/10/10 03:42:13;;;;;;;0.70;0.63;;;6.90;99.90;;;;;;5083049;28;20189;-81
2021/10/10 03:44:39;;;;;;;0.63;0.40;;;6.90;99.90;;;;;;5079868;28;20204;-81
2021/10/10 03:47:04;;;;;;;0.23;0.23;;;6.90;99.90;;;;;;5095272;28;20176;-81
2021/10/10 03:49:30;;;;;;;0.60;0.60;;;7.00;99.90;;;;;;5083595;28;20238;-81
2021/10/10 03:51:55;;;;;;;0.40;0.40;;;7.10;99.90;;;;;;5089858;28;20188;-80
2021/10/10 03:56:53;;;;;;;0.20;0.20;;;7.20;99.90;;;;;;5085550;28;20180;-80
2021/10/10 03:59:23;;;;;;;0.43;0.43;;;7.20;99.90;;;;;;5088633;28;20280;-80
2021/10/10 04:01:49;;;;;;;0.30;0.30;;;7.30;99.90;;;;;;5085581;28;20215;-80
2021/10/10 04:04:16;;;;;;;0.50;0.50;;;7.30;99.90;;;;;;5087815;28;20180;-81
2021/10/10 04:06:42;;;;;;;0.97;0.47;;;7.30;99.90;;;;;;5096246;28;20196;-80
2021/10/10 04:09:08;;;;;;;0.30;0.30;;;7.30;99.90;;;;;;5090045;28;20218;-81
2021/10/10 04:11:33;;;;;;;1.13;0.30;;;7.30;99.90;;;;;;5080289;28;20177;-81
2021/10/10 04:13:59;;;;;;;0.57;0.53;;;7.30;99.90;;;;;;5085927;28;20185;-81
2021/10/10 04:16:24;;;;;;;0.30;0.30;;;7.40;99.90;;;;;;5086384;28;20201;-80
2021/10/10 04:18:50;;;;;;;1.03;0.60;;;7.40;99.90;;;;;;5094580;28;20196;-81
2021/10/10 04:21:15;;;;;;;0.70;0.67;;;7.40;99.90;;;;;;5084700;28;20192;-80
2021/10/10 04:23:41;;;;;;;0.57;0.30;;;7.40;99.90;;;;;;5078859;28;20280;-80
2021/10/10 04:26:07;;;;;;;0.33;0.33;;;7.40;99.90;;;;;;5080595;28;20216;-81
2021/10/10 04:28:32;;;;;;;0.20;0.20;;;7.30;99.90;;;;;;5092647;28;20785;-81
2021/10/10 04:30:58;;;;;;;1.00;0.27;;;7.30;99.90;;;;;;5074759;28;20181;-81
2021/10/10 04:33:23;;;;;;;0.20;0.20;;;7.20;99.90;;;;;;5085242;28;20187;-80
2021/10/10 04:35:49;;;;;;;0.33;0.33;;;7.10;99.90;;;;;;5079618;28;20196;-81
2021/10/10 04:38:15;;;;;;;0.23;0.17;;;7.10;99.90;;;;;;5087632;28;20181;-81
2021/10/10 04:40:42;;;;;;;1.60;0.60;;;7.00;99.90;;;;;;5089943;28;20237;-81
2021/10/10 04:43:09;;;;;;;0.47;0.47;;;6.90;99.90;;;;;;5094450;28;20193;-81
2021/10/10 04:45:35;;;;;;;1.53;0.33;;;6.90;99.90;;;;;;5083619;28;20547;-81
2021/10/10 04:48:01;;;;;;;0.40;0.40;;;6.80;99.90;;;;;;5089113;28;20201;-80
2021/10/10 04:50:27;;;;;;;0.27;0.27;;;6.80;99.90;;;;;;5085016;28;20645;-80
2021/10/10 04:52:52;;;;;;;1.03;0.97;;;6.60;99.90;;;;;;5079951;28;20181;-82
2021/10/10 04:55:18;;;;;;;2.83;0.97;;;6.60;99.90;;;;;;5080500;28;20216;-81
2021/10/10 04:57:43;;;;;;;0.53;0.53;;;6.50;99.90;;;;;;5089231;28;20189;-81
2021/10/10 05:00:10;;;;;;;0.30;0.30;;;6.50;99.90;;;;;;5083496;28;21109;-81
2021/10/10 05:02:35;;;;;;;0.50;0.50;;;6.50;99.90;;;;;;5089999;28;20184;-81
2021/10/10 05:05:01;;;;;;;0.17;0.17;;;6.50;99.90;;;;;;5082987;28;20208;-81
2021/10/10 05:07:29;;;;;;;0.83;0.40;;;6.50;99.90;;;;;;5086902;28;20208;-81
2021/10/10 05:09:54;;;;;;;1.20;0.60;;;6.40;99.90;;;;;;5085060;28;20718;-81
2021/10/10 05:12:20;;;;;;;0.43;0.43;;;6.50;99.90;;;;;;5085866;28;20185;-83
2021/10/10 05:14:45;;;;;;;0.63;0.63;;;6.50;99.90;;;;;;5082485;28;20246;-81
2021/10/10 05:17:11;;;;;;;0.23;0.23;;;6.60;99.90;;;;;;5096072;28;20645;-82
2021/10/10 05:19:37;;;;;;;1.90;0.50;;;6.70;99.90;;;;;;5101896;28;20184;-82
2021/10/10 05:22:03;;;;;;;1.40;0.40;;;6.70;99.90;;;;;;5089620;28;20177;-82
2021/10/10 05:24:28;;;;;;;2.70;2.23;;;6.70;99.90;;;;;;5081900;28;20623;-82
2021/10/10 05:26:54;;;;;;;0.30;0.30;;;6.70;99.90;;;;;;5085082;28;20303;-83
2021/10/10 05:29:20;;;;;;;0.43;0.43;;;6.70;99.90;;;;;;5077918;28;20315;-80
2021/10/10 05:31:46;;;;;;;0.40;0.40;;;6.80;99.90;;;;;;5082641;28;20181;-79
2021/10/10 05:34:11;;;;;;;0.57;0.50;;;6.80;99.90;;;;;;5084822;28;20555;-80
2021/10/10 05:36:37;;;;;;;0.23;0.23;;;6.80;99.90;;;;;;5092354;28;20279;-80
2021/10/10 05:39:03;;;;;;;1.80;0.70;;;6.80;99.90;;;;;;5088145;28;20258;-80
2021/10/10 05:41:29;;;;;;;0.40;0.40;;;6.70;99.90;;;;;;5092372;28;20195;-80
2021/10/10 05:43:55;;;;;;;0.17;0.17;;;6.60;99.90;;;;;;5089034;28;20184;-80
2021/10/10 05:46:20;;;;;;;0.40;0.40;;;6.60;99.90;;;;;;5090466;28;20716;-80
2021/10/10 05:48:46;;;;;;;0.20;0.20;;;6.70;99.90;;;;;;5088649;28;20212;-80
2021/10/10 05:51:11;;;;;;;0.40;0.27;;;6.70;99.90;;;;;;5087547;28;20189;-80
2021/10/10 05:53:38;;;;;;;0.60;0.60;;;6.80;99.90;;;;;;5080481;28;20186;-82
2021/10/10 05:56:04;;;;;;;0.57;0.57;;;6.90;99.90;;;;;;5088456;28;20207;-82
2021/10/10 05:58:33;;;;;;;0.60;0.60;;;6.90;99.90;;;;;;5091242;28;20663;-83
2021/10/10 06:00:59;;;;;;;2.37;0.40;;;7.00;99.90;;;;;;5088392;28;20266;-82
2021/10/10 06:03:24;;;;;;;0.60;0.60;;;7.00;99.90;;;;;;5080129;28;20678;-82
2021/10/10 06:05:50;;;;;;;1.30;0.63;;;6.90;99.90;;;;;;5091331;28;20216;-83
2021/10/10 06:08:16;;;;;;;0.43;0.40;;;7.00;99.90;;;;;;5094132;28;20200;-83
2021/10/10 06:10:43;;;;;;;0.43;0.43;;;7.00;99.90;;;;;;5077265;28;20232;-83
2021/10/10 06:13:09;;;;;;;0.83;0.83;;;7.10;99.90;;;;;;5077910;28;20250;-82
2021/10/10 06:15:36;;;;;;;0.77;0.77;;;7.10;99.90;;;;;;5082406;28;20219;-80
2021/10/10 06:18:02;;;;;;;0.57;0.27;;;7.10;99.90;;;;;;5087484;28;20245;-81
2021/10/10 06:20:28;;;;;;;0.57;0.30;;;7.00;99.90;;;;;;5083922;28;20233;-81
2021/10/10 06:22:53;;;;;;;1.30;0.30;;;6.90;99.90;;;;;;5104171;28;20193;-80
2021/10/10 06:25:19;;;;;;;0.47;0.47;;;7.00;99.90;;;;;;5084003;28;20527;-80
2021/10/10 06:27:45;;;;;;;0.23;0.23;;;7.30;99.90;;;;;;5095408;28;20248;-81
2021/10/10 06:30:11;;;;;;;4.80;0.77;;;7.40;99.90;;;;;;5082977;28;20192;-82
2021/10/10 06:32:38;;;;;;;0.40;0.40;;;7.50;99.90;;;;;;5092333;28;20654;-82
2021/10/10 06:35:06;;;;;;;0.40;0.40;;;7.50;99.90;;;;;;5091232;28;20273;-81
2021/10/10 06:37:31;;;;;;;0.30;0.30;;;7.60;99.90;;;;;;5090725;28;20188;-81
2021/10/10 06:39:57;;;;;;;0.50;0.50;;;7.80;99.90;;;;;;5093547;28;20207;-82
2021/10/10 06:42:23;;;;;;;0.20;0.20;;;7.80;99.90;;;;;;5080759;28;20247;-81
2021/10/10 06:44:48;;;;;;;0.20;0.20;;;7.90;99.90;;;;;;5096966;28;20576;-81
2021/10/10 06:47:15;;;;;;;0.60;0.60;;;8.10;99.90;;;;;;5086777;28;20185;-82
2021/10/10 06:49:42;;;;;;;1.10;1.07;;;8.20;99.90;;;;;;5090757;28;20603;-81
2021/10/10 06:52:07;;;;;;;0.60;0.60;;;8.40;99.90;;;;;;5090629;28;20174;-82
2021/10/10 06:54:34;;;;;;;1.80;0.50;;;8.50;99.90;;;;;;5095569;28;20193;-81
2021/10/10 06:57:00;;;;;;;0.60;0.60;;;8.50;99.90;;;;;;5084065;28;20208;-82
2021/10/10 06:59:25;;;;;;;0.20;0.20;;;8.60;99.90;;;;;;5083110;28;20186;-82
2021/10/10 07:01:51;;;;;;;0.30;0.30;;;8.70;99.90;;;;;;5087901;28;20184;-82
2021/10/10 07:04:16;;;;;;;0.50;0.50;;;8.70;99.90;;;;;;5076894;28;20184;-82
2021/10/10 07:06:43;;;;;;;1.07;1.07;;;8.80;99.90;;;;;;5073533;28;20185;-82
2021/10/10 07:09:08;;;;;;;0.50;0.50;;;8.90;99.90;;;;;;5078313;28;20242;-80
2021/10/10 07:11:34;;;;;;;0.83;0.83;;;9.10;99.90;;;;;;5067067;28;20644;-81
2021/10/10 07:13:59;;;;;;;0.30;0.30;;;9.20;99.90;;;;;;5092534;28;20658;-81
2021/10/10 07:16:29;;;;;;;0.43;0.43;;;9.40;99.90;;;;;;5077488;28;20207;-81
2021/10/10 07:18:56;;;;;;;0.33;0.33;;;9.40;99.90;;;;;;5088480;28;20181;-80
2021/10/10 07:26:35;;;;;;;0.33;0.33;;;10.00;99.90;;;;;;5088493;28;20185;-81
2021/10/10 07:29:02;;;;;;;3.23;0.70;;;10.10;99.90;;;;;;5093999;28;20194;-82
2021/10/10 07:31:29;;;;;;;1.00;0.40;;;10.30;99.90;;;;;;5077539;28;20224;-82
2021/10/10 07:33:54;;;;;;;0.47;0.43;;;10.50;99.90;;;;;;5092614;28;20573;-82
2021/10/10 07:36:20;;;;;;;1.20;0.60;;;10.50;99.90;;;;;;5083402;28;20211;-82
2021/10/10 07:38:46;;;;;;;0.83;0.70;;;10.60;99.90;;;;;;5089551;28;20181;-82
2021/10/10 07:41:12;;;;;;;0.50;0.40;;;10.70;99.90;;;;;;5090944;28;20257;-83
2021/10/10 07:43:39;;;;;;;0.60;0.60;;;10.80;99.90;;;;;;5082064;28;20924;-83
2021/10/10 07:46:07;;;;;;;0.87;0.87;;;10.80;99.90;;;;;;5067520;28;20214;-82
2021/10/10 07:48:36;;;;;;;1.20;0.63;;;10.80;99.90;;;;;;5076972;28;20205;-81
2021/10/10 07:51:03;;;;;;;0.23;0.23;;;10.90;99.90;;;;;;5072118;28;20294;-81
2021/10/10 07:53:29;;;;;;;0.57;0.50;;;11.00;99.90;;;;;;5068440;28;20674;-81
2021/10/10 07:55:55;;;;;;;0.50;0.50;;;11.00;99.90;;;;;;5076203;28;20221;-82
2021/10/10 07:58:20;;;;;;;0.57;0.20;;;11.20;99.90;;;;;;5069986;28;20180;-81
2021/10/10 08:00:46;;;;;;;0.63;0.30;;;11.40;99.90;;;;;;5090397;28;20560;-83
2021/10/10 08:03:11;;;;;;;1.70;0.57;;;11.60;99.90;;;;;;5085366;28;20185;-82
2021/10/10 08:05:42;;;;;;;0.50;0.50;;;11.90;99.90;;;;;;5086108;28;20732;-81
2021/10/10 08:08:09;;;;;;;0.70;0.70;;;12.10;99.90;;;;;;5085368;28;20207;-81
2021/10/10 08:10:35;;;;;;;0.40;0.40;;;12.20;99.90;;;;;;5078896;28;20187;-82
2021/10/10 08:13:01;;;;;;;0.30;0.30;;;12.40;99.90;;;;;;5081877;28;20705;-81
2021/10/10 08:15:27;;;;;;;0.70;0.70;;;12.50;99.90;;;;;;5088883;28;20230;-80
2021/10/10 08:17:52;;;;;;;1.20;0.53;;;12.60;99.90;;;;;;5084629;28;20187;-81
2021/10/10 08:20:19;;;;;;;0.67;0.67;;;12.70;99.90;;;;;;5086410;28;20190;-81
2021/10/10 08:22:47;;;;;;;0.50;0.43;;;12.70;99.90;;;;;;5082958;28;20187;-81
2021/10/10 08:25:13;;;;;;;1.23;0.37;;;12.80;99.90;;;;;;5097170;28;20204;-82
2021/10/10 08:27:41;;;;;;;1.60;0.87;;;12.90;99.90;;;;;;5083100;28;20272;-81
2021/10/10 08:30:09;;;;;;;0.83;0.73;;;12.90;99.90;;;;;;5078244;28;20184;-83
2021/10/10 08:32:35;;;;;;;1.10;0.43;;;13.10;99.90;;;;;;5091791;28;20205;-81
2021/10/10 08:35:02;;;;;;;0.53;0.53;;;13.10;99.90;;;;;;5086523;28;20231;-81
2021/10/10 08:37:28;;;;;;;1.30;0.90;;;13.30;99.90;;;;;;5081790;28;20175;-82
2021/10/10 08:39:53;;;;;;;1.13;0.80;;;13.40;99.90;;;;;;5082685;28;20192;-82
2021/10/10 08:42:27;;;;;;;0.53;0.53;;;13.40;99.90;;;;;;5087867;28;20660;-82
2021/10/10 08:45:02;;;;;;;1.13;0.80;;;13.40;99.90;;;;;;5101540;28;20197;-82
2021/10/10 08:47:31;;;;;;;1.23;1.10;;;13.20;99.90;;;;;;5088292;28;20294;-81
2021/10/10 08:49:57;;;;;;;1.10;0.70;;;12.60;99.90;;;;;;5086400;28;20180;-81
2021/10/10 08:52:23;;;;;;;2.00;1.27;;;12.40;99.90;;;;;;5078783;28;20203;-81
2021/10/10 08:54:50;;;;;;;0.50;0.50;;;12.20;99.90;;;;;;5084278;28;20197;-81
2021/10/10 08:57:16;;;;;;;0.60;0.60;;;12.50;99.90;;;;;;5081607;28;20177;-81
2021/10/10 08:59:46;;;;;;;0.83;0.83;;;12.10;99.90;;;;;;5079234;28;20195;-80
2021/10/10 09:02:25;;;;;;;1.23;0.83;;;12.20;99.90;;;;;;5100333;28;20174;-81
2021/10/10 09:04:51;;;;;;;1.00;0.63;;;12.20;99.90;;;;;;5086825;28;20710;-81
2021/10/10 09:07:17;;;;;;;1.47;0.67;;;12.20;99.90;;;;;;5086134;28;20173;-81
2021/10/10 09:09:43;;;;;;;0.70;0.70;;;12.30;99.90;;;;;;5086131;28;20186;-81
2021/10/10 09:12:09;;;;;;;1.20;0.93;;;12.70;99.90;;;;;;5077635;28;21119;-81
2021/10/10 09:14:41;;;;;;;1.80;0.73;;;12.30;99.90;;;;;;5084257;28;20218;-81
2021/10/10 09:17:12;;;;;;;0.40;0.40;;;12.90;99.90;;;;;;5083886;28;20174;-81
2021/10/10 09:19:38;;;;;;;4.03;0.87;;;13.50;99.90;;;;;;5088647;28;20203;-81
2021/10/10 09:22:11;;;;;;;0.60;0.60;;;13.80;99.90;;;;;;5085719;28;20187;-81
2021/10/10 09:24:37;;;;;;;0.37;0.27;;;14.10;99.90;;;;;;5086395;28;20201;-81
2021/10/10 09:27:04;;;;;;;1.20;0.90;;;14.50;99.90;;;;;;5082240;28;20187;-81
2021/10/10 09:29:34;;;;;;;3.80;0.50;;;14.10;99.90;;;;;;5079124;28;20598;-80
2021/10/10 09:32:08;;;;;;;8.90;1.50;;;14.10;99.90;;;;;;5076748;28;20204;-81
2021/10/10 09:34:36;;;;;;;0.80;0.80;;;13.40;99.90;;;;;;5085662;28;20299;-81
2021/10/10 09:37:07;;;;;;;1.97;1.10;;;13.50;99.90;;;;;;5084137;28;20176;-81
2021/10/10 09:39:40;;;;;;;2.53;1.30;;;14.00;99.90;;;;;;5074408;28;20174;-81
2021/10/10 09:42:06;;;;;;;2.23;1.63;;;14.00;99.90;;;;;;5082950;28;20176;-81
2021/10/10 09:44:46;;;;;;;1.43;0.93;;;13.40;99.90;;;;;;5085638;28;20579;-81
2021/10/10 09:47:12;;;;;;;0.93;0.80;;;13.30;99.90;;;;;;5072435;28;20602;-81
2021/10/10 09:49:38;;;;;;;0.50;0.33;;;13.80;99.90;;;;;;5082962;28;20196;-81
2021/10/10 09:52:13;;;;;;;1.63;1.53;;;13.60;99.90;;;;;;5090549;28;20176;-81
2021/10/10 09:54:59;;;;;;;0.50;0.50;;;14.30;99.90;;;;;;5083298;28;20199;-82
2021/10/10 09:57:27;;;;;;;0.73;0.73;;;14.80;99.90;;;;;;5076314;28;20267;-82
2021/10/10 09:59:53;;;;;;;2.27;1.27;;;14.70;99.90;;;;;;5076064;28;20192;-81
2021/10/10 10:02:40;;;;;;;1.20;1.17;;;14.30;99.90;;;;;;5085327;28;20237;-81
2021/10/10 10:05:06;;;;;;;1.57;0.83;;;14.70;99.90;;;;;;5073260;28;20567;-82
2021/10/10 10:07:33;;;;;;;1.27;1.20;;;14.80;99.90;;;;;;5087688;28;20200;-82
2021/10/10 10:09:59;;;;;;;1.80;1.20;;;15.20;99.90;;;;;;5086759;28;20177;-80
2021/10/10 10:12:30;;;;;;;0.40;0.40;;;15.10;99.90;;;;;;5088309;28;20226;-80
2021/10/10 10:14:59;;;;;;;1.43;0.90;;;15.40;99.90;;;;;;5067019;28;20193;-82
2021/10/10 10:17:27;;;;;;;0.80;0.80;;;15.50;99.90;;;;;;5076891;28;20638;-81
2021/10/10 10:19:55;;;;;;;0.20;0.20;;;15.80;99.90;;;;;;5079087;28;20181;-82
2021/10/10 10:22:22;;;;;;;2.23;1.20;;;15.70;99.90;;;;;;5076845;28;20267;-82
2021/10/10 10:24:48;;;;;;;0.87;0.87;;;16.00;99.90;;;;;;5083481;28;20227;-83
2021/10/10 10:27:15;;;;;;;1.87;1.03;;;16.20;99.90;;;;;;5094762;28;20722;-81
2021/10/10 10:29:43;;;;;;;1.57;1.47;;;15.70;99.90;;;;;;5089077;28;20189;-82
2021/10/10 10:32:09;;;;;;;1.70;1.60;;;15.30;99.90;;;;;;5072975;28;20293;-81
2021/10/10 10:34:36;;;;;;;1.00;0.80;;;15.40;99.90;;;;;;5082913;28;20290;-83
2021/10/10 10:37:07;;;;;;;1.07;0.97;;;15.80;99.90;;;;;;5071617;28;20182;-82
2021/10/10 10:39:47;;;;;;;2.63;1.33;;;15.10;99.90;;;;;;5071334;28;20185;-83
2021/10/10 10:42:23;;;;;;;1.17;0.70;;;15.40;99.90;;;;;;5082177;28;20183;-82
2021/10/10 10:44:49;;;;;;;1.60;1.17;;;15.90;99.90;;;;;;5080336;28;20198;-82
2021/10/10 10:47:17;;;;;;;0.67;0.40;;;16.00;99.90;;;;;;5094487;28;20195;-81
2021/10/10 10:49:53;;;;;;;0.93;0.93;;;16.00;99.90;;;;;;5087436;28;20187;-82
2021/10/10 10:52:29;;;;;;;1.27;0.80;;;16.10;99.90;;;;;;5071062;28;20177;-82
2021/10/10 10:55:05;;;;;;;0.80;0.80;;;16.50;99.90;;;;;;5080247;28;20220;-82
2021/10/10 10:57:33;;;;;;;0.83;0.83;;;16.60;99.90;;;;;;5081097;28;20180;-82
2021/10/10 11:00:00;;;;;;;1.77;1.53;;;15.80;99.90;;;;;;5083712;28;20639;-81
2021/10/10 11:02:48;;;;;;;2.50;1.53;;;16.10;99.90;;;;;;5089049;28;20177;-82
2021/10/10 11:05:33;;;;;;;3.50;1.63;;;16.10;99.90;;;;;;5078890;28;20209;-83
2021/10/10 11:08:17;;;;;;;1.27;1.17;;;15.30;99.90;;;;;;5079167;28;20221;-82
2021/10/10 11:11:03;;;;;;;1.43;1.10;;;15.60;99.90;;;;;;5073768;28;20199;-82
2021/10/10 11:13:35;;;;;;;1.37;1.27;;;16.40;99.90;;;;;;5089380;28;20261;-81
2021/10/10 11:16:11;;;;;;;2.80;1.30;;;16.00;99.90;;;;;;5072297;28;20293;-81
2021/10/10 11:18:45;;;;;;;0.90;0.90;;;16.50;99.90;;;;;;5074105;28;20636;-81
2021/10/10 11:21:13;;;;;;;0.77;0.57;;;16.70;99.90;;;;;;5082087;28;20180;-81
2021/10/10 11:23:39;;;;;;;1.10;1.00;;;16.40;99.90;;;;;;5083169;28;20640;-82
2021/10/10 11:26:11;;;;;;;0.90;0.90;;;16.70;99.90;;;;;;5069735;28;20242;-83
2021/10/10 11:28:38;;;;;;;2.20;1.10;;;17.00;99.90;;;;;;5089776;28;20227;-82
2021/10/10 11:31:19;;;;;;;1.10;1.00;;;16.50;99.90;;;;;;5091204;28;20526;-82
2021/10/10 11:33:55;;;;;;;1.33;1.10;;;17.00;99.90;;;;;;5097225;28;20188;-82
2021/10/10 11:36:37;;;;;;;1.23;0.93;;;16.90;99.90;;;;;;5096954;28;20275;-82
2021/10/10 11:39:06;;;;;;;1.23;0.83;;;16.40;99.90;;;;;;5081608;28;20180;-82
2021/10/10 11:41:38;;;;;;;0.83;0.83;;;16.30;99.90;;;;;;5095626;28;20610;-82
2021/10/10 11:44:05;;;;;;;1.00;0.73;;;16.60;99.90;;;;;;5081327;28;20191;-81
2021/10/10 11:46:45;;;;;;;1.07;0.60;;;16.40;99.90;;;;;;5084053;28;20614;-82
2021/10/10 11:49:25;;;;;;;1.20;0.90;;;16.00;99.90;;;;;;5084767;28;20207;-82
2021/10/10 11:51:52;;;;;;;2.33;1.23;;;15.60;99.90;;;;;;5100557;28;20181;-83
2021/10/10 11:54:32;;;;;;;1.60;1.00;;;15.70;99.90;;;;;;5089746;28;20178;-82
2021/10/10 11:56:59;;;;;;;2.43;0.83;;;16.20;99.90;;;;;;5097115;28;20174;-82
2021/10/10 11:59:26;;;;;;;0.67;0.67;;;16.50;99.90;;;;;;5096442;28;20729;-81
2021/10/10 12:01:54;;;;;;;1.53;1.17;;;16.60;99.90;;;;;;5094208;28;20183;-82
2021/10/10 12:04:20;;;;;;;1.47;1.37;;;16.80;99.90;;;;;;5094236;28;20183;-82
2021/10/10 12:06:50;;;;;;;1.77;1.00;;;15.70;99.90;;;;;;5078381;28;20203;-82
2021/10/10 12:09:16;;;;;;;1.57;0.67;;;15.80;99.90;;;;;;5088508;28;20224;-83
2021/10/10 12:12:03;;;;;;;2.33;1.27;;;16.40;99.90;;;;;;5079523;28;20180;-82
2021/10/10 12:14:54;;;;;;;0.77;0.77;;;16.60;99.90;;;;;;5095813;28;20544;-82
2021/10/10 12:17:26;;;;;;;0.90;0.63;;;17.10;99.90;;;;;;5087834;28;20189;-83
2021/10/10 12:19:53;;;;;;;3.13;0.53;;;17.40;99.90;;;;;;5086571;28;20182;-83
2021/10/10 12:22:18;;;;;;;2.90;1.57;;;17.60;99.90;;;;;;5099061;28;20221;-82
2021/10/10 12:24:46;;;;;;;0.80;0.80;;;17.30;99.90;;;;;;5088630;28;20634;-83
2021/10/10 12:27:22;;;;;;;1.77;0.90;;;17.20;99.90;;;;;;5093678;28;20702;-83
2021/10/10 12:29:48;;;;;;;2.87;1.67;;;17.60;99.90;;;;;;5094352;28;20182;-84
2021/10/10 12:32:19;;;;;;;0.50;0.50;;;17.40;99.90;;;;;;5099145;28;20244;-83
2021/10/10 12:34:45;;;;;;;1.17;1.07;;;17.30;99.90;;;;;;5094066;28;20232;-82
2021/10/10 12:37:23;;;;;;;1.60;1.23;;;17.00;99.90;;;;;;5089094;28;20550;-82
2021/10/10 12:39:49;;;;;;;1.37;1.27;;;17.30;99.90;;;;;;5092454;28;20197;-82
2021/10/10 12:42:19;;;;;;;1.43;1.33;;;16.90;99.90;;;;;;5091266;28;20184;-83
2021/10/10 12:45:35;;;;;;;3.67;1.40;;;16.10;99.90;;;;;;5074256;28;20554;-83
2021/10/10 12:48:10;;;;;;;3.83;0.90;;;16.30;99.90;;;;;;5046717;28;20613;-81
2021/10/10 12:50:57;;;;;;;1.10;1.10;;;16.90;99.90;;;;;;5090620;28;20187;-83
2021/10/10 12:53:40;;;;;;;0.93;0.83;;;17.20;99.90;;;;;;5096120;28;20198;-81
2021/10/10 12:56:10;;;;;;;2.57;1.43;;;17.60;99.90;;;;;;5086136;28;20451;-81
2021/10/10 12:58:53;;;;;;;1.17;1.13;;;17.50;99.90;;;;;;5083645;28;20185;-82
2021/10/10 13:01:21;;;;;;;0.70;0.53;;;17.80;99.90;;;;;;5094213;28;20653;-81
2021/10/10 13:03:46;;;;;;;2.10;0.70;;;17.90;99.90;;;;;;5095860;28;20192;-81